sensor_id;sensor_type;location;lat;lon;timestamp;temperature;humidity
46458;DHT22;32155;54.076;12.092;2022-10-16T00:00:26;14.90;99.90
46458;DHT22;32155;54.076;12.092;2022-10-16T00:02:52;14.90;99.90
46458;DHT22;32155;54.076;12.092;2022-10-16T00:05:17;14.80;99.90
46458;DHT22;32155;54.076;12.092;2022-10-16T00:07:43;14.80;99.90
46458;DHT22;32155;54.076;12.092;2022-10-16T00:10:08;14.80;99.90
46458;DHT22;32155;54.076;12.092;2022-10-16T00:12:34;14.80;99.90
46458;DHT22;32155;54.076;12.092;2022-10-16T00:14:59;14.80;99.90
46458;DHT22;32155;54.076;12.092;2022-10-16T00:17:25;14.60;99.90
46458;DHT22;32155;54.076;12.092;2022-10-16T00:19:52;14.70;99.90
46458;DHT22;32155;54.076;12.092;2022-10-16T00:22:18;14.60;99.90
46458;DHT22;32155;54.076;12.092;2022-10-16T00:24:43;14.50;99.90
46458;DHT22;32155;54.076;12.092;2022-10-16T00:27:09;14.40;99.90
46458;DHT22;32155;54.076;12.092;2022-10-16T00:29:34;14.40;99.90
46458;DHT22;32155;54.076;12.092;2022-10-16T00:31:59;14.50;99.90
46458;DHT22;32155;54.076;12.092;2022-10-16T00:34:25;14.50;99.90
46458;DHT22;32155;54.076;12.092;2022-10-16T00:36:50;14.50;99.90
46458;DHT22;32155;54.076;12.092;2022-10-16T00:39:16;14.50;99.90
46458;DHT22;32155;54.076;12.092;2022-10-16T00:41:41;14.50;99.90
46458;DHT22;32155;54.076;12.092;2022-10-16T00:46:51;14.40;99.90
46458;DHT22;32155;54.076;12.092;2022-10-16T00:49:17;14.40;99.90
46458;DHT22;32155;54.076;12.092;2022-10-16T00:51:45;14.40;99.90
46458;DHT22;32155;54.076;12.092;2022-10-16T00:54:44;14.40;99.90
46458;DHT22;32155;54.076;12.092;2022-10-16T00:57:04;14.40;99.90
46458;DHT22;32155;54.076;12.092;2022-10-16T00:59:34;14.20;99.90
46458;DHT22;32155;54.076;12.092;2022-10-16T01:02:01;14.30;99.90
46458;DHT22;32155;54.076;12.092;2022-10-16T01:04:28;14.30;99.90
46458;DHT22;32155;54.076;12.092;2022-10-16T01:09:59;14.30;99.90
46458;DHT22;32155;54.076;12.092;2022-10-16T01:14:59;14.20;99.90
46458;DHT22;32155;54.076;12.092;2022-10-16T01:17:28;14.10;99.90
46458;DHT22;32155;54.076;12.092;2022-10-16T01:22:34;14.10;99.90
46458;DHT22;32155;54.076;12.092;2022-10-16T01:25:02;14.10;99.90
46458;DHT22;32155;54.076;12.092;2022-10-16T01:27:30;14.10;99.90
46458;DHT22;32155;54.076;12.092;2022-10-16T01:32:37;14.10;99.90
46458;DHT22;32155;54.076;12.092;2022-10-16T01:35:08;14.10;99.90
46458;DHT22;32155;54.076;12.092;2022-10-16T01:40:00;14.00;99.90
46458;DHT22;32155;54.076;12.092;2022-10-16T01:42:33;14.00;99.90
46458;DHT22;32155;54.076;12.092;2022-10-16T01:45:02;14.00;99.90
46458;DHT22;32155;54.076;12.092;2022-10-16T01:47:31;14.00;99.90
46458;DHT22;32155;54.076;12.092;2022-10-16T01:49:57;14.00;99.90
46458;DHT22;32155;54.076;12.092;2022-10-16T01:52:26;14.00;99.90
46458;DHT22;32155;54.076;12.092;2022-10-16T01:54:54;14.00;99.90
46458;DHT22;32155;54.076;12.092;2022-10-16T01:57:21;14.00;99.90
46458;DHT22;32155;54.076;12.092;2022-10-16T01:59:52;13.90;99.90
46458;DHT22;32155;54.076;12.092;2022-10-16T02:02:21;13.90;99.90
46458;DHT22;32155;54.076;12.092;2022-10-16T02:04:53;13.90;99.90
46458;DHT22;32155;54.076;12.092;2022-10-16T02:07:20;14.00;99.90
46458;DHT22;32155;54.076;12.092;2022-10-16T02:09:45;13.90;99.90
46458;DHT22;32155;54.076;12.092;2022-10-16T02:15:11;13.90;99.90
46458;DHT22;32155;54.076;12.092;2022-10-16T02:17:39;13.90;99.90
46458;DHT22;32155;54.076;12.092;2022-10-16T02:20:05;13.80;99.90
46458;DHT22;32155;54.076;12.092;2022-10-16T02:22:32;13.90;99.90
46458;DHT22;32155;54.076;12.092;2022-10-16T02:25:01;13.80;99.90
46458;DHT22;32155;54.076;12.092;2022-10-16T02:30:14;13.80;99.90
46458;DHT22;32155;54.076;12.092;2022-10-16T02:32:42;13.80;99.90
46458;DHT22;32155;54.076;12.092;2022-10-16T02:35:08;13.80;99.90
46458;DHT22;32155;54.076;12.092;2022-10-16T02:37:34;13.70;99.90
46458;DHT22;32155;54.076;12.092;2022-10-16T02:40:00;13.70;99.90
46458;DHT22;32155;54.076;12.092;2022-10-16T02:42:27;13.70;99.90
46458;DHT22;32155;54.076;12.092;2022-10-16T02:44:53;13.70;99.90
46458;DHT22;32155;54.076;12.092;2022-10-16T02:47:19;13.80;99.90
46458;DHT22;32155;54.076;12.092;2022-10-16T02:49:44;13.70;99.90
46458;DHT22;32155;54.076;12.092;2022-10-16T02:52:10;13.60;99.90
46458;DHT22;32155;54.076;12.092;2022-10-16T02:54:35;13.70;99.90
46458;DHT22;32155;54.076;12.092;2022-10-16T02:57:01;13.70;99.90
46458;DHT22;32155;54.076;12.092;2022-10-16T02:59:26;13.60;99.90
46458;DHT22;32155;54.076;12.092;2022-10-16T03:01:52;13.60;99.90
46458;DHT22;32155;54.076;12.092;2022-10-16T03:04:17;13.60;99.90
46458;DHT22;32155;54.076;12.092;2022-10-16T03:06:43;13.60;99.90
46458;DHT22;32155;54.076;12.092;2022-10-16T03:09:08;13.60;99.90
46458;DHT22;32155;54.076;12.092;2022-10-16T03:11:34;13.50;99.90
46458;DHT22;32155;54.076;12.092;2022-10-16T03:13:59;13.50;99.90
46458;DHT22;32155;54.076;12.092;2022-10-16T03:16:25;13.50;99.90
46458;DHT22;32155;54.076;12.092;2022-10-16T03:18:53;13.50;99.90
46458;DHT22;32155;54.076;12.092;2022-10-16T03:21:20;13.40;99.90
46458;DHT22;32155;54.076;12.092;2022-10-16T03:23:48;13.40;99.90
46458;DHT22;32155;54.076;12.092;2022-10-16T03:26:14;13.40;99.90
46458;DHT22;32155;54.076;12.092;2022-10-16T03:28:39;13.40;99.90
46458;DHT22;32155;54.076;12.092;2022-10-16T03:31:07;13.40;99.90
46458;DHT22;32155;54.076;12.092;2022-10-16T03:33:33;13.40;99.90
46458;DHT22;32155;54.076;12.092;2022-10-16T03:35:59;13.40;99.90
46458;DHT22;32155;54.076;12.092;2022-10-16T03:38:25;13.30;99.90
46458;DHT22;32155;54.076;12.092;2022-10-16T03:40:51;13.40;99.90
46458;DHT22;32155;54.076;12.092;2022-10-16T03:43:19;13.30;99.90
46458;DHT22;32155;54.076;12.092;2022-10-16T03:45:46;13.30;99.90
46458;DHT22;32155;54.076;12.092;2022-10-16T03:48:12;13.40;99.90
46458;DHT22;32155;54.076;12.092;2022-10-16T03:50:37;13.30;99.90
46458;DHT22;32155;54.076;12.092;2022-10-16T03:53:03;13.30;99.90
46458;DHT22;32155;54.076;12.092;2022-10-16T03:55:29;13.30;99.90
46458;DHT22;32155;54.076;12.092;2022-10-16T03:57:54;13.20;99.90
46458;DHT22;32155;54.076;12.092;2022-10-16T04:00:20;13.20;99.90
46458;DHT22;32155;54.076;12.092;2022-10-16T04:02:45;13.30;99.90
46458;DHT22;32155;54.076;12.092;2022-10-16T04:05:11;13.20;99.90
46458;DHT22;32155;54.076;12.092;2022-10-16T04:07:36;13.10;99.90
46458;DHT22;32155;54.076;12.092;2022-10-16T04:10:04;13.10;99.90
46458;DHT22;32155;54.076;12.092;2022-10-16T04:12:30;13.10;99.90
46458;DHT22;32155;54.076;12.092;2022-10-16T04:14:55;13.00;99.90
46458;DHT22;32155;54.076;12.092;2022-10-16T04:17:20;12.90;99.90
46458;DHT22;32155;54.076;12.092;2022-10-16T04:19:46;12.80;99.90
46458;DHT22;32155;54.076;12.092;2022-10-16T04:22:11;12.80;99.90
46458;DHT22;32155;54.076;12.092;2022-10-16T04:24:37;12.80;99.90
46458;DHT22;32155;54.076;12.092;2022-10-16T04:27:03;12.80;99.90
46458;DHT22;32155;54.076;12.092;2022-10-16T04:29:28;12.70;99.90
46458;DHT22;32155;54.076;12.092;2022-10-16T04:31:54;12.70;99.90
46458;DHT22;32155;54.076;12.092;2022-10-16T04:34:20;12.60;99.90
46458;DHT22;32155;54.076;12.092;2022-10-16T04:36:48;12.60;99.90
46458;DHT22;32155;54.076;12.092;2022-10-16T04:39:16;12.60;99.90
46458;DHT22;32155;54.076;12.092;2022-10-16T04:41:42;12.50;99.90
46458;DHT22;32155;54.076;12.092;2022-10-16T04:44:07;12.50;99.90
46458;DHT22;32155;54.076;12.092;2022-10-16T04:46:33;12.50;99.90
46458;DHT22;32155;54.076;12.092;2022-10-16T04:49:01;12.40;99.90
46458;DHT22;32155;54.076;12.092;2022-10-16T04:51:26;12.30;99.90
46458;DHT22;32155;54.076;12.092;2022-10-16T04:53:53;12.30;99.90
46458;DHT22;32155;54.076;12.092;2022-10-16T04:56:22;12.30;99.90
46458;DHT22;32155;54.076;12.092;2022-10-16T04:58:48;12.30;99.90
46458;DHT22;32155;54.076;12.092;2022-10-16T05:01:13;12.30;99.90
46458;DHT22;32155;54.076;12.092;2022-10-16T05:03:39;12.30;99.90
46458;DHT22;32155;54.076;12.092;2022-10-16T05:06:05;12.20;99.90
46458;DHT22;32155;54.076;12.092;2022-10-16T05:08:31;12.20;99.90
46458;DHT22;32155;54.076;12.092;2022-10-16T05:10:56;12.10;99.90
46458;DHT22;32155;54.076;12.092;2022-10-16T05:13:21;12.10;99.90
46458;DHT22;32155;54.076;12.092;2022-10-16T05:15:48;12.10;99.90
46458;DHT22;32155;54.076;12.092;2022-10-16T05:18:14;12.10;99.90
46458;DHT22;32155;54.076;12.092;2022-10-16T05:20:40;12.00;99.90
46458;DHT22;32155;54.076;12.092;2022-10-16T05:23:08;12.00;99.90
46458;DHT22;32155;54.076;12.092;2022-10-16T05:25:35;12.00;99.90
46458;DHT22;32155;54.076;12.092;2022-10-16T05:28:03;12.00;99.90
46458;DHT22;32155;54.076;12.092;2022-10-16T05:30:29;11.90;99.90
46458;DHT22;32155;54.076;12.092;2022-10-16T05:32:54;11.90;99.90
46458;DHT22;32155;54.076;12.092;2022-10-16T05:35:20;12.00;99.90
46458;DHT22;32155;54.076;12.092;2022-10-16T05:37:48;12.00;99.90
46458;DHT22;32155;54.076;12.092;2022-10-16T05:40:14;12.00;99.90
46458;DHT22;32155;54.076;12.092;2022-10-16T05:42:40;12.10;99.90
46458;DHT22;32155;54.076;12.092;2022-10-16T05:45:08;12.00;99.90
46458;DHT22;32155;54.076;12.092;2022-10-16T05:47:34;11.90;99.90
46458;DHT22;32155;54.076;12.092;2022-10-16T05:50:00;12.00;99.90
46458;DHT22;32155;54.076;12.092;2022-10-16T05:52:26;12.10;99.90
46458;DHT22;32155;54.076;12.092;2022-10-16T05:54:51;12.00;99.90
46458;DHT22;32155;54.076;12.092;2022-10-16T05:57:17;12.00;99.90
46458;DHT22;32155;54.076;12.092;2022-10-16T05:59:42;12.00;99.90
46458;DHT22;32155;54.076;12.092;2022-10-16T06:02:11;12.00;99.90
46458;DHT22;32155;54.076;12.092;2022-10-16T06:04:37;12.00;99.90
46458;DHT22;32155;54.076;12.092;2022-10-16T06:07:05;12.00;99.90
46458;DHT22;32155;54.076;12.092;2022-10-16T06:09:31;12.10;99.90
46458;DHT22;32155;54.076;12.092;2022-10-16T06:11:56;12.10;99.90
46458;DHT22;32155;54.076;12.092;2022-10-16T06:14:22;12.20;99.90
46458;DHT22;32155;54.076;12.092;2022-10-16T06:16:47;12.20;99.90
46458;DHT22;32155;54.076;12.092;2022-10-16T06:19:13;12.20;99.90
46458;DHT22;32155;54.076;12.092;2022-10-16T06:21:38;12.20;99.90
46458;DHT22;32155;54.076;12.092;2022-10-16T06:24:06;12.20;99.90
46458;DHT22;32155;54.076;12.092;2022-10-16T06:26:32;12.20;99.90
46458;DHT22;32155;54.076;12.092;2022-10-16T06:29:00;12.30;99.90
46458;DHT22;32155;54.076;12.092;2022-10-16T06:31:26;12.30;99.90
46458;DHT22;32155;54.076;12.092;2022-10-16T06:33:56;12.50;99.90
46458;DHT22;32155;54.076;12.092;2022-10-16T06:36:22;12.80;99.90
46458;DHT22;32155;54.076;12.092;2022-10-16T06:38:48;13.10;99.90
46458;DHT22;32155;54.076;12.092;2022-10-16T06:41:14;13.20;99.90
46458;DHT22;32155;54.076;12.092;2022-10-16T06:43:40;13.10;99.90
46458;DHT22;32155;54.076;12.092;2022-10-16T06:46:07;13.10;99.90
46458;DHT22;32155;54.076;12.092;2022-10-16T06:48:33;13.00;99.90
46458;DHT22;32155;54.076;12.092;2022-10-16T06:53:27;13.00;99.90
46458;DHT22;32155;54.076;12.092;2022-10-16T06:55:52;13.10;99.90
46458;DHT22;32155;54.076;12.092;2022-10-16T06:58:18;13.20;99.90
46458;DHT22;32155;54.076;12.092;2022-10-16T07:00:43;13.40;99.90
46458;DHT22;32155;54.076;12.092;2022-10-16T07:03:09;13.50;99.90
46458;DHT22;32155;54.076;12.092;2022-10-16T07:05:38;13.60;99.90
46458;DHT22;32155;54.076;12.092;2022-10-16T07:08:06;13.70;99.90
46458;DHT22;32155;54.076;12.092;2022-10-16T07:10:32;13.90;99.90
46458;DHT22;32155;54.076;12.092;2022-10-16T07:12:57;14.00;99.90
46458;DHT22;32155;54.076;12.092;2022-10-16T07:15:24;14.10;99.90
46458;DHT22;32155;54.076;12.092;2022-10-16T07:17:49;14.10;99.90
46458;DHT22;32155;54.076;12.092;2022-10-16T07:20:15;14.20;99.90
46458;DHT22;32155;54.076;12.092;2022-10-16T07:22:40;14.40;99.90
46458;DHT22;32155;54.076;12.092;2022-10-16T07:25:06;14.70;99.90
46458;DHT22;32155;54.076;12.092;2022-10-16T07:27:32;14.50;99.90
46458;DHT22;32155;54.076;12.092;2022-10-16T07:29:57;14.70;99.90
46458;DHT22;32155;54.076;12.092;2022-10-16T07:32:23;15.50;99.90
46458;DHT22;32155;54.076;12.092;2022-10-16T07:34:51;15.90;99.90
46458;DHT22;32155;54.076;12.092;2022-10-16T07:37:16;16.80;99.90
46458;DHT22;32155;54.076;12.092;2022-10-16T07:39:42;19.50;99.90
46458;DHT22;32155;54.076;12.092;2022-10-16T07:42:07;21.00;99.90
46458;DHT22;32155;54.076;12.092;2022-10-16T07:44:33;22.50;99.90
46458;DHT22;32155;54.076;12.092;2022-10-16T07:46:58;22.20;99.90
46458;DHT22;32155;54.076;12.092;2022-10-16T07:49:29;23.10;99.90
46458;DHT22;32155;54.076;12.092;2022-10-16T07:51:55;23.90;99.90
46458;DHT22;32155;54.076;12.092;2022-10-16T07:54:20;24.20;99.90
46458;DHT22;32155;54.076;12.092;2022-10-16T07:56:46;24.60;99.90
46458;DHT22;32155;54.076;12.092;2022-10-16T07:59:11;24.60;99.90
46458;DHT22;32155;54.076;12.092;2022-10-16T08:01:37;24.80;99.90
46458;DHT22;32155;54.076;12.092;2022-10-16T08:04:03;24.90;99.90
46458;DHT22;32155;54.076;12.092;2022-10-16T08:06:28;25.90;99.90
46458;DHT22;32155;54.076;12.092;2022-10-16T08:08:57;25.40;99.90
46458;DHT22;32155;54.076;12.092;2022-10-16T08:11:25;26.30;99.90
46458;DHT22;32155;54.076;12.092;2022-10-16T08:13:51;26.30;99.90
46458;DHT22;32155;54.076;12.092;2022-10-16T08:16:16;26.30;99.90
46458;DHT22;32155;54.076;12.092;2022-10-16T08:18:42;27.10;99.90
46458;DHT22;32155;54.076;12.092;2022-10-16T08:21:12;27.00;99.90
46458;DHT22;32155;54.076;12.092;2022-10-16T08:23:37;26.10;99.90
46458;DHT22;32155;54.076;12.092;2022-10-16T08:26:06;26.60;99.90
46458;DHT22;32155;54.076;12.092;2022-10-16T08:28:34;25.80;99.90
46458;DHT22;32155;54.076;12.092;2022-10-16T08:31:07;25.60;99.90
46458;DHT22;32155;54.076;12.092;2022-10-16T08:33:33;25.50;99.90
46458;DHT22;32155;54.076;12.092;2022-10-16T08:36:00;24.30;99.90
46458;DHT22;32155;54.076;12.092;2022-10-16T08:38:25;22.70;99.90
46458;DHT22;32155;54.076;12.092;2022-10-16T08:40:54;21.50;99.90
46458;DHT22;32155;54.076;12.092;2022-10-16T08:51:05;24.10;99.90
46458;DHT22;32155;54.076;12.092;2022-10-16T08:56:21;22.40;99.90
46458;DHT22;32155;54.076;12.092;2022-10-16T08:58:50;21.70;99.90
46458;DHT22;32155;54.076;12.092;2022-10-16T09:01:17;21.60;99.90
46458;DHT22;32155;54.076;12.092;2022-10-16T09:16:30;23.50;99.90
46458;DHT22;32155;54.076;12.092;2022-10-16T09:21:25;27.50;99.90
46458;DHT22;32155;54.076;12.092;2022-10-16T09:23:53;28.60;99.90
46458;DHT22;32155;54.076;12.092;2022-10-16T09:26:21;29.20;99.90
46458;DHT22;32155;54.076;12.092;2022-10-16T09:28:47;28.10;99.90
46458;DHT22;32155;54.076;12.092;2022-10-16T09:31:17;26.40;99.90
46458;DHT22;32155;54.076;12.092;2022-10-16T09:33:43;27.10;99.90
46458;DHT22;32155;54.076;12.092;2022-10-16T09:36:10;24.00;99.90
46458;DHT22;32155;54.076;12.092;2022-10-16T09:38:38;22.20;99.90
46458;DHT22;32155;54.076;12.092;2022-10-16T09:46:05;23.40;99.90
46458;DHT22;32155;54.076;12.092;2022-10-16T09:48:33;23.60;99.90
46458;DHT22;32155;54.076;12.092;2022-10-16T09:51:04;23.30;99.90
46458;DHT22;32155;54.076;12.092;2022-10-16T09:53:40;25.30;99.90
46458;DHT22;32155;54.076;12.092;2022-10-16T09:56:20;27.50;99.90
46458;DHT22;32155;54.076;12.092;2022-10-16T09:58:49;27.40;99.90
46458;DHT22;32155;54.076;12.092;2022-10-16T10:01:15;26.90;99.90
46458;DHT22;32155;54.076;12.092;2022-10-16T10:03:41;27.20;99.90
46458;DHT22;32155;54.076;12.092;2022-10-16T10:11:39;29.10;99.90
46458;DHT22;32155;54.076;12.092;2022-10-16T10:16:40;30.60;99.90
46458;DHT22;32155;54.076;12.092;2022-10-16T10:19:13;31.00;99.90
46458;DHT22;32155;54.076;12.092;2022-10-16T10:21:38;29.50;99.90
46458;DHT22;32155;54.076;12.092;2022-10-16T10:24:04;29.30;99.90
46458;DHT22;32155;54.076;12.092;2022-10-16T10:26:30;30.70;99.90
46458;DHT22;32155;54.076;12.092;2022-10-16T10:29:06;30.90;99.70
46458;DHT22;32155;54.076;12.092;2022-10-16T10:34:23;30.80;98.40
46458;DHT22;32155;54.076;12.092;2022-10-16T10:36:59;31.00;98.00
46458;DHT22;32155;54.076;12.092;2022-10-16T10:39:32;30.80;97.20
46458;DHT22;32155;54.076;12.092;2022-10-16T11:07:04;31.30;92.00
46458;DHT22;32155;54.076;12.092;2022-10-16T11:09:34;31.50;91.40
46458;DHT22;32155;54.076;12.092;2022-10-16T11:17:23;31.40;89.90
46458;DHT22;32155;54.076;12.092;2022-10-16T11:19:52;30.70;91.50
46458;DHT22;32155;54.076;12.092;2022-10-16T11:22:35;30.30;91.60
46458;DHT22;32155;54.076;12.092;2022-10-16T11:27:38;31.70;90.40
46458;DHT22;32155;54.076;12.092;2022-10-16T11:30:06;32.60;85.90
46458;DHT22;32155;54.076;12.092;2022-10-16T11:32:35;30.90;88.70
46458;DHT22;32155;54.076;12.092;2022-10-16T11:35:15;31.00;88.50
46458;DHT22;32155;54.076;12.092;2022-10-16T11:37:43;30.80;89.70
46458;DHT22;32155;54.076;12.092;2022-10-16T11:42:41;33.00;85.70
46458;DHT22;32155;54.076;12.092;2022-10-16T11:48:00;31.60;83.90
46458;DHT22;32155;54.076;12.092;2022-10-16T11:52:55;31.60;86.90
46458;DHT22;32155;54.076;12.092;2022-10-16T11:55:28;31.70;87.10
46458;DHT22;32155;54.076;12.092;2022-10-16T11:57:57;32.50;83.80
46458;DHT22;32155;54.076;12.092;2022-10-16T12:00:31;29.90;89.40
46458;DHT22;32155;54.076;12.092;2022-10-16T12:07:51;31.70;84.50
46458;DHT22;32155;54.076;12.092;2022-10-16T12:10:29;31.60;83.30
46458;DHT22;32155;54.076;12.092;2022-10-16T12:12:56;31.50;83.20
46458;DHT22;32155;54.076;12.092;2022-10-16T12:15:30;31.50;82.70
46458;DHT22;32155;54.076;12.092;2022-10-16T12:17:56;32.00;79.70
46458;DHT22;32155;54.076;12.092;2022-10-16T12:20:23;30.90;82.60
46458;DHT22;32155;54.076;12.092;2022-10-16T12:25:29;28.90;84.30
46458;DHT22;32155;54.076;12.092;2022-10-16T12:30:22;30.30;83.30
46458;DHT22;32155;54.076;12.092;2022-10-16T12:32:58;30.50;83.10
46458;DHT22;32155;54.076;12.092;2022-10-16T12:35:26;29.30;83.30
46458;DHT22;32155;54.076;12.092;2022-10-16T12:37:52;27.80;88.30
46458;DHT22;32155;54.076;12.092;2022-10-16T12:42:47;30.00;83.40
46458;DHT22;32155;54.076;12.092;2022-10-16T12:45:29;29.30;84.80
46458;DHT22;32155;54.076;12.092;2022-10-16T12:47:56;27.70;87.60
46458;DHT22;32155;54.076;12.092;2022-10-16T12:50:26;26.30;88.30
46458;DHT22;32155;54.076;12.092;2022-10-16T12:52:52;26.40;90.30
46458;DHT22;32155;54.076;12.092;2022-10-16T12:55:18;24.70;91.40
46458;DHT22;32155;54.076;12.092;2022-10-16T12:57:57;23.40;93.40
46458;DHT22;32155;54.076;12.092;2022-10-16T13:00:41;22.30;95.10
46458;DHT22;32155;54.076;12.092;2022-10-16T13:03:19;21.30;96.80
46458;DHT22;32155;54.076;12.092;2022-10-16T13:10:58;21.70;96.80
46458;DHT22;32155;54.076;12.092;2022-10-16T13:16:11;20.70;99.20
46458;DHT22;32155;54.076;12.092;2022-10-16T13:18:48;20.80;99.60
46458;DHT22;32155;54.076;12.092;2022-10-16T13:21:33;21.10;99.60
46458;DHT22;32155;54.076;12.092;2022-10-16T13:24:05;21.30;99.50
46458;DHT22;32155;54.076;12.092;2022-10-16T13:26:49;21.00;99.60
46458;DHT22;32155;54.076;12.092;2022-10-16T13:29:17;22.10;99.30
46458;DHT22;32155;54.076;12.092;2022-10-16T13:31:43;24.00;96.60
46458;DHT22;32155;54.076;12.092;2022-10-16T13:34:11;24.30;95.60
46458;DHT22;32155;54.076;12.092;2022-10-16T13:36:48;25.80;93.60
46458;DHT22;32155;54.076;12.092;2022-10-16T13:39:26;27.30;91.60
46458;DHT22;32155;54.076;12.092;2022-10-16T13:42:05;28.10;89.60
46458;DHT22;32155;54.076;12.092;2022-10-16T13:44:34;28.40;88.50
46458;DHT22;32155;54.076;12.092;2022-10-16T13:47:01;26.50;90.30
46458;DHT22;32155;54.076;12.092;2022-10-16T13:49:27;26.80;90.60
46458;DHT22;32155;54.076;12.092;2022-10-16T13:51:56;28.00;88.20
46458;DHT22;32155;54.076;12.092;2022-10-16T13:54:22;28.40;87.90
46458;DHT22;32155;54.076;12.092;2022-10-16T13:56:48;28.10;86.90
46458;DHT22;32155;54.076;12.092;2022-10-16T13:59:26;27.50;87.00
46458;DHT22;32155;54.076;12.092;2022-10-16T14:01:54;27.60;87.90
46458;DHT22;32155;54.076;12.092;2022-10-16T14:04:21;27.20;88.20
46458;DHT22;32155;54.076;12.092;2022-10-16T14:06:49;27.00;87.00
46458;DHT22;32155;54.076;12.092;2022-10-16T14:09:24;26.70;89.00
46458;DHT22;32155;54.076;12.092;2022-10-16T14:11:53;26.70;89.30
46458;DHT22;32155;54.076;12.092;2022-10-16T14:14:19;26.50;90.60
46458;DHT22;32155;54.076;12.092;2022-10-16T14:16:47;26.50;90.30
46458;DHT22;32155;54.076;12.092;2022-10-16T14:19:20;26.10;90.70
46458;DHT22;32155;54.076;12.092;2022-10-16T14:21:48;25.50;91.50
46458;DHT22;32155;54.076;12.092;2022-10-16T14:26:53;25.00;91.80
46458;DHT22;32155;54.076;12.092;2022-10-16T14:29:21;24.20;93.20
46458;DHT22;32155;54.076;12.092;2022-10-16T14:31:56;24.20;93.30
46458;DHT22;32155;54.076;12.092;2022-10-16T14:34:30;23.60;94.20
46458;DHT22;32155;54.076;12.092;2022-10-16T14:36:57;22.80;95.80
46458;DHT22;32155;54.076;12.092;2022-10-16T14:39:23;23.90;95.10
46458;DHT22;32155;54.076;12.092;2022-10-16T14:41:51;24.20;94.60
46458;DHT22;32155;54.076;12.092;2022-10-16T14:44:17;23.50;95.10
46458;DHT22;32155;54.076;12.092;2022-10-16T14:46:43;23.00;95.90
46458;DHT22;32155;54.076;12.092;2022-10-16T14:51:38;21.60;98.00
46458;DHT22;32155;54.076;12.092;2022-10-16T14:54:07;21.20;99.20
46458;DHT22;32155;54.076;12.092;2022-10-16T14:56:52;20.90;99.90
46458;DHT22;32155;54.076;12.092;2022-10-16T14:59:25;20.70;99.90
46458;DHT22;32155;54.076;12.092;2022-10-16T15:01:52;20.20;99.90
46458;DHT22;32155;54.076;12.092;2022-10-16T15:04:18;20.00;99.90
46458;DHT22;32155;54.076;12.092;2022-10-16T15:06:43;19.80;99.90
46458;DHT22;32155;54.076;12.092;2022-10-16T15:09:09;19.60;99.90
46458;DHT22;32155;54.076;12.092;2022-10-16T15:11:34;19.40;99.90
46458;DHT22;32155;54.076;12.092;2022-10-16T15:14:00;19.30;99.90
46458;DHT22;32155;54.076;12.092;2022-10-16T15:16:28;19.20;99.90
46458;DHT22;32155;54.076;12.092;2022-10-16T15:18:54;19.00;99.90
46458;DHT22;32155;54.076;12.092;2022-10-16T15:21:22;18.80;99.90
46458;DHT22;32155;54.076;12.092;2022-10-16T15:23:49;18.70;99.90
46458;DHT22;32155;54.076;12.092;2022-10-16T15:26:16;18.50;99.90
46458;DHT22;32155;54.076;12.092;2022-10-16T15:28:41;18.40;99.90
46458;DHT22;32155;54.076;12.092;2022-10-16T15:31:07;18.20;99.90
46458;DHT22;32155;54.076;12.092;2022-10-16T15:33:32;18.10;99.90
46458;DHT22;32155;54.076;12.092;2022-10-16T15:36:00;18.00;99.90
46458;DHT22;32155;54.076;12.092;2022-10-16T15:38:28;17.80;99.90
46458;DHT22;32155;54.076;12.092;2022-10-16T15:40:54;17.70;99.90
46458;DHT22;32155;54.076;12.092;2022-10-16T15:43:20;17.70;99.90
46458;DHT22;32155;54.076;12.092;2022-10-16T15:45:57;17.60;99.90
46458;DHT22;32155;54.076;12.092;2022-10-16T15:48:23;17.40;99.90
46458;DHT22;32155;54.076;12.092;2022-10-16T15:50:49;17.30;99.90
46458;DHT22;32155;54.076;12.092;2022-10-16T15:53:14;17.20;99.90
46458;DHT22;32155;54.076;12.092;2022-10-16T15:55:40;17.10;99.90
46458;DHT22;32155;54.076;12.092;2022-10-16T15:58:05;17.00;99.90
46458;DHT22;32155;54.076;12.092;2022-10-16T16:00:31;16.90;99.90
46458;DHT22;32155;54.076;12.092;2022-10-16T16:02:58;16.80;99.90
46458;DHT22;32155;54.076;12.092;2022-10-16T16:05:24;16.70;99.90
46458;DHT22;32155;54.076;12.092;2022-10-16T16:07:50;16.60;99.90
46458;DHT22;32155;54.076;12.092;2022-10-16T16:10:16;16.50;99.90
46458;DHT22;32155;54.076;12.092;2022-10-16T16:12:41;16.40;99.90
46458;DHT22;32155;54.076;12.092;2022-10-16T16:15:08;16.40;99.90
46458;DHT22;32155;54.076;12.092;2022-10-16T16:17:34;16.30;99.90
46458;DHT22;32155;54.076;12.092;2022-10-16T16:20:00;16.10;99.90
46458;DHT22;32155;54.076;12.092;2022-10-16T16:22:26;16.00;99.90
46458;DHT22;32155;54.076;12.092;2022-10-16T16:24:51;15.90;99.90
46458;DHT22;32155;54.076;12.092;2022-10-16T16:27:22;15.90;99.90
46458;DHT22;32155;54.076;12.092;2022-10-16T16:29:49;15.80;99.90
46458;DHT22;32155;54.076;12.092;2022-10-16T16:32:15;15.60;99.90
46458;DHT22;32155;54.076;12.092;2022-10-16T16:34:43;15.50;99.90
46458;DHT22;32155;54.076;12.092;2022-10-16T16:37:08;15.40;99.90
46458;DHT22;32155;54.076;12.092;2022-10-16T16:39:34;15.30;99.90
46458;DHT22;32155;54.076;12.092;2022-10-16T16:41:59;15.30;99.90
46458;DHT22;32155;54.076;12.092;2022-10-16T16:44:25;15.20;99.90
46458;DHT22;32155;54.076;12.092;2022-10-16T16:46:51;15.00;99.90
46458;DHT22;32155;54.076;12.092;2022-10-16T16:49:17;14.90;99.90
46458;DHT22;32155;54.076;12.092;2022-10-16T16:51:42;14.90;99.90
46458;DHT22;32155;54.076;12.092;2022-10-16T16:54:09;14.70;99.90
46458;DHT22;32155;54.076;12.092;2022-10-16T16:56:38;14.70;99.90
46458;DHT22;32155;54.076;12.092;2022-10-16T16:59:03;14.70;99.90
46458;DHT22;32155;54.076;12.092;2022-10-16T17:01:29;14.70;99.90
46458;DHT22;32155;54.076;12.092;2022-10-16T17:03:56;14.60;99.90
46458;DHT22;32155;54.076;12.092;2022-10-16T17:06:23;14.50;99.90
46458;DHT22;32155;54.076;12.092;2022-10-16T17:08:49;14.40;99.90
46458;DHT22;32155;54.076;12.092;2022-10-16T17:11:16;14.30;99.90
46458;DHT22;32155;54.076;12.092;2022-10-16T17:13:42;14.20;99.90
46458;DHT22;32155;54.076;12.092;2022-10-16T17:16:08;14.10;99.90
46458;DHT22;32155;54.076;12.092;2022-10-16T17:18:33;14.20;99.90
46458;DHT22;32155;54.076;12.092;2022-10-16T17:21:00;14.00;99.90
46458;DHT22;32155;54.076;12.092;2022-10-16T17:23:28;13.80;99.90
46458;DHT22;32155;54.076;12.092;2022-10-16T17:25:56;13.80;99.90
46458;DHT22;32155;54.076;12.092;2022-10-16T17:28:22;13.80;99.90